KTNU/TNU METAR and TAF weather

Enter ICAO airport designator
Station Type Date Time Source
KTNU METAR 2018/12/12 07:55 UTC NOAA

KTNU 120755Z AUTO 26008KT 10SM CLR M03/M04 A2973 RMK AO2


Station Type Date Time Source
KTNU Decoded METAR 2018/12/12 07:55 UTC NOAA

Newton Municipal, IA, United States (KTNU) 41-41N 093-01W
Dec 12, 2018 - 02:55 AM EST / 2018.12.12 0755 UTC
Wind: from the W (260 degrees) at 9 MPH (8 KT):0
Visibility: 10 mile(s):0
Sky conditions: clear
Temperature: 26 F (-3 C)
Windchill: 17 F (-8 C):1
Dew Point: 24 F (-4 C)
Relative Humidity: 92%
Pressure (altimeter): 29.73 in. Hg (1006 hPa)
ob: KTNU 120755Z AUTO 26008KT 10SM CLR M03/M04 A2973 RMK AO2
cycle: 8

Station Type Date Time Source
KTNU TAF UTC NOAA

Error!


Example: see airport list